createdAt,value
2022-09-15T00:03:04.352Z,58.85
2022-09-15T00:08:07.897Z,58.84
2022-09-15T00:13:11.290Z,58.89
2022-09-15T00:18:18.393Z,58.81
2022-09-15T00:23:25.224Z,58.83
2022-09-15T00:28:28.686Z,58.79
2022-09-15T00:33:32.069Z,58.83
2022-09-15T00:38:36.987Z,58.91
2022-09-15T00:43:43.547Z,59.10
2022-09-15T00:49:16.675Z,59.34
2022-09-15T00:54:32.060Z,59.19
2022-09-15T00:59:39.490Z,59.47
2022-09-15T01:04:43.814Z,59.73
2022-09-15T01:09:54.725Z,59.70
2022-09-15T01:15:01.451Z,59.57
2022-09-15T01:20:09.217Z,59.82
2022-09-15T01:25:31.086Z,59.64
2022-09-15T01:30:42.237Z,59.65
2022-09-15T01:36:03.894Z,59.50
2022-09-15T01:41:07.373Z,59.55
2022-09-15T01:46:14.528Z,59.52
2022-09-15T01:51:18.757Z,59.47
2022-09-15T01:56:22.623Z,59.77
2022-09-15T02:01:39.414Z,59.92
2022-09-15T02:07:01.663Z,59.90
2022-09-15T02:12:10.253Z,59.95
2022-09-15T02:17:17.603Z,59.99
2022-09-15T02:22:23.879Z,60.06
2022-09-15T02:27:31.938Z,59.95
2022-09-15T02:32:37.765Z,60.06
2022-09-15T02:37:41.621Z,59.87
2022-09-15T02:42:56.987Z,59.77
2022-09-15T02:48:00.267Z,59.80
2022-09-15T02:53:03.914Z,59.66
2022-09-15T02:58:07.367Z,59.58
2022-09-15T03:03:10.728Z,59.70
2022-09-15T03:08:14.048Z,59.46
2022-09-15T03:13:17.916Z,59.19
2022-09-15T03:18:21.304Z,59.60
2022-09-15T03:23:24.805Z,59.15
2022-09-15T03:28:29.423Z,59.13
2022-09-15T03:33:33.268Z,59.08
2022-09-15T03:38:37.215Z,59.17
2022-09-15T03:43:41.370Z,59.43
2022-09-15T03:48:45.368Z,59.40
2022-09-15T03:53:48.658Z,59.35
2022-09-15T03:58:53.206Z,59.33
2022-09-15T04:03:56.940Z,59.21
2022-09-15T04:09:00.592Z,59.17
2022-09-15T04:14:04.110Z,59.24
2022-09-15T04:19:07.397Z,58.95
2022-09-15T04:24:10.815Z,59.14
2022-09-15T04:29:16.380Z,59.11
2022-09-15T04:34:19.830Z,58.83
2022-09-15T04:39:23.195Z,58.83
2022-09-15T04:44:26.796Z,58.19
2022-09-15T04:49:30.231Z,56.99
2022-09-15T04:54:34.759Z,52.47
2022-09-15T04:59:38.170Z,49.16
2022-09-15T05:04:41.654Z,47.00
2022-09-15T05:09:46.348Z,45.99
2022-09-15T05:14:49.970Z,47.24
2022-09-15T05:19:54.016Z,48.27
2022-09-15T05:24:57.587Z,49.57
2022-09-15T05:30:25.244Z,50.32
2022-09-15T05:35:25.421Z,51.50
2022-09-15T05:40:31.569Z,51.96
2022-09-15T05:45:37.833Z,52.52
2022-09-15T05:50:49.797Z,53.10
2022-09-15T05:55:56.453Z,53.58
2022-09-15T06:01:08.470Z,53.70
2022-09-15T06:06:12.185Z,53.91
2022-09-15T06:11:21.946Z,54.27
2022-09-15T06:16:26.385Z,54.08
2022-09-15T06:21:31.758Z,53.74
2022-09-15T06:26:35.100Z,53.60
2022-09-15T06:31:41.684Z,53.16
2022-09-15T06:36:51.514Z,52.39
2022-09-15T06:42:03.696Z,52.18
2022-09-15T06:47:10.695Z,52.31
2022-09-15T06:52:13.910Z,52.35
2022-09-15T06:57:17.383Z,52.46
2022-09-15T07:02:20.818Z,52.36
2022-09-15T07:07:25.688Z,52.20
2022-09-15T07:12:29.276Z,52.07
2022-09-15T07:17:32.800Z,52.00
2022-09-15T07:22:36.860Z,51.83
2022-09-15T07:27:40.115Z,51.46
2022-09-15T07:32:43.385Z,51.04
2022-09-15T07:37:47.103Z,51.17
2022-09-15T07:42:50.490Z,50.68
2022-09-15T07:47:55.034Z,50.27
2022-09-15T07:52:58.456Z,49.67
2022-09-15T07:58:02.884Z,49.45
2022-09-15T08:03:06.400Z,49.08
2022-09-15T08:08:09.800Z,48.87
2022-09-15T08:13:13.219Z,48.78
2022-09-15T08:18:19.718Z,49.02
2022-09-15T08:23:27.125Z,48.38
2022-09-15T08:28:30.538Z,48.63
2022-09-15T08:33:34.623Z,48.53
2022-09-15T08:38:42.968Z,48.65
2022-09-15T08:44:13.889Z,48.38
2022-09-15T08:49:53.497Z,48.52
2022-09-15T08:55:03.636Z,47.69
2022-09-15T09:00:14.972Z,47.32
2022-09-15T09:05:47.569Z,47.30
2022-09-15T09:10:58.612Z,46.90
2022-09-15T09:16:20.384Z,47.19
2022-09-15T09:21:33.672Z,47.26
2022-09-15T09:26:37.364Z,47.00
2022-09-15T09:31:41.959Z,47.10
2022-09-15T09:36:45.680Z,47.18
2022-09-15T09:41:49.837Z,47.00
2022-09-15T09:46:53.630Z,47.22
2022-09-15T09:52:00.231Z,47.33
2022-09-15T09:57:32.196Z,47.31
2022-09-15T10:02:47.078Z,47.21
2022-09-15T10:07:50.694Z,47.30
2022-09-15T10:12:58.108Z,46.85
2022-09-15T10:18:02.133Z,46.81
2022-09-15T10:23:17.839Z,47.10
2022-09-15T10:28:23.992Z,47.41
2022-09-15T10:33:32.033Z,47.25
2022-09-15T10:38:44.953Z,47.60
2022-09-15T10:44:22.065Z,47.80
2022-09-15T10:49:41.903Z,47.96
2022-09-15T10:54:58.668Z,47.47
2022-09-15T11:00:20.561Z,47.43
2022-09-15T11:05:38.108Z,47.22
2022-09-15T11:10:47.621Z,47.06
2022-09-15T11:15:54.074Z,47.17
2022-09-15T11:21:26.426Z,47.03
2022-09-15T11:26:57.068Z,47.17
2022-09-15T11:32:10.236Z,46.89
2022-09-15T11:37:40.453Z,47.36
2022-09-15T11:42:58.123Z,47.26
2022-09-15T11:48:15.873Z,47.21
2022-09-15T11:53:26.411Z,47.29
2022-09-15T11:59:01.008Z,47.34
2022-09-15T12:04:43.782Z,47.37
2022-09-15T12:09:47.219Z,47.13
2022-09-15T12:14:52.711Z,47.11
2022-09-15T12:20:06.516Z,46.89
2022-09-15T12:25:20.551Z,47.05
2022-09-15T12:30:41.095Z,47.17
2022-09-15T12:35:44.589Z,47.22
2022-09-15T12:40:58.599Z,47.25
2022-09-15T12:46:02.759Z,47.20
2022-09-15T12:51:09.828Z,47.09
2022-09-15T12:56:24.282Z,47.29
2022-09-15T13:01:27.540Z,47.33
2022-09-15T13:06:34.751Z,47.42
2022-09-15T13:11:41.975Z,47.58
2022-09-15T13:17:09.053Z,47.67
2022-09-15T13:22:12.328Z,47.73
2022-09-15T13:27:21.164Z,48.08
2022-09-15T13:32:46.588Z,48.50
2022-09-15T13:38:20.137Z,48.60
2022-09-15T13:44:03.956Z,49.01
2022-09-15T13:49:25.649Z,49.11
2022-09-15T13:54:29.321Z,49.48
2022-09-15T13:59:33.865Z,49.54
2022-09-15T14:04:37.376Z,49.40
2022-09-15T14:09:48.749Z,49.49
2022-09-15T14:14:56.464Z,50.07
2022-09-15T14:20:01.768Z,50.04
2022-09-15T14:25:14.427Z,50.16
2022-09-15T14:30:26.762Z,50.18
2022-09-15T14:35:37.998Z,50.59
2022-09-15T14:40:53.658Z,50.83
2022-09-15T14:46:10.865Z,50.86
2022-09-15T14:51:25.249Z,51.02
2022-09-15T14:56:34.505Z,51.29
2022-09-15T15:01:41.008Z,51.58
2022-09-15T15:07:06.284Z,51.36
2022-09-15T15:12:25.243Z,51.95
2022-09-15T15:17:43.709Z,52.08
2022-09-15T15:22:47.611Z,52.11
2022-09-15T15:27:53.956Z,52.66
2022-09-15T15:33:02.868Z,52.78
2022-09-15T15:38:18.226Z,52.83
2022-09-15T15:43:23.777Z,53.47
2022-09-15T15:48:45.377Z,53.93
2022-09-15T15:53:48.859Z,54.24
2022-09-15T15:58:52.297Z,54.17
2022-09-15T16:03:55.960Z,54.27
2022-09-15T16:09:00.822Z,54.47
2022-09-15T16:14:04.264Z,54.43
2022-09-15T16:19:07.563Z,55.12
2022-09-15T16:24:15.714Z,54.93
2022-09-15T16:29:19.303Z,55.32
2022-09-15T16:34:23.029Z,55.14
2022-09-15T16:39:26.513Z,55.39
2022-09-15T16:44:29.922Z,55.44
2022-09-15T16:49:33.404Z,55.76
2022-09-15T16:54:36.660Z,55.71
2022-09-15T16:59:40.384Z,55.72
2022-09-15T17:04:44.942Z,55.87
2022-09-15T17:09:50.901Z,56.01
2022-09-15T17:14:54.413Z,56.03
2022-09-15T17:19:58.465Z,56.10
2022-09-15T17:25:01.971Z,56.38
2022-09-15T17:30:06.312Z,56.50
2022-09-15T17:35:18.160Z,56.55
2022-09-15T17:40:22.019Z,56.18
2022-09-15T17:45:35.066Z,56.00
2022-09-15T17:50:39.800Z,56.31
2022-09-15T17:55:43.660Z,56.32
2022-09-15T18:00:49.006Z,56.23
2022-09-15T18:05:52.512Z,56.50
2022-09-15T18:10:57.138Z,56.46
2022-09-15T18:16:05.923Z,56.27
2022-09-15T18:21:21.242Z,56.51
2022-09-15T18:26:26.692Z,56.69
2022-09-15T18:31:30.245Z,56.92
2022-09-15T18:36:33.881Z,57.02
2022-09-15T18:41:37.803Z,57.20
2022-09-15T18:46:41.211Z,56.89
2022-09-15T18:51:52.190Z,57.34
2022-09-15T18:56:55.584Z,57.30
2022-09-15T19:02:00.325Z,57.46
2022-09-15T19:07:03.756Z,57.41
2022-09-15T19:12:07.116Z,57.89
2022-09-15T19:17:11.758Z,57.97
2022-09-15T19:22:15.983Z,58.28
2022-09-15T19:27:20.062Z,58.42
2022-09-15T19:32:23.536Z,58.62
2022-09-15T19:37:26.809Z,58.37
2022-09-15T19:42:30.018Z,58.47
2022-09-15T19:47:33.653Z,58.71
2022-09-15T19:52:37.046Z,58.77
2022-09-15T19:57:42.550Z,59.06
2022-09-15T20:02:48.316Z,58.82
2022-09-15T20:07:52.620Z,59.21
2022-09-15T20:12:56.110Z,59.24
2022-09-15T20:17:59.433Z,59.59
2022-09-15T20:23:02.519Z,59.66
2022-09-15T20:28:05.821Z,59.72
2022-09-15T20:33:09.310Z,59.55
2022-09-15T20:38:12.737Z,59.61
2022-09-15T20:43:16.158Z,59.72
2022-09-15T20:48:19.574Z,59.67
2022-09-15T20:53:22.899Z,59.82
2022-09-15T20:58:26.916Z,60.05
2022-09-15T21:03:30.879Z,59.83
2022-09-15T21:08:35.482Z,60.01
2022-09-15T21:13:40.944Z,60.14
2022-09-15T21:18:45.496Z,60.31
2022-09-15T21:23:52.008Z,60.21
2022-09-15T21:28:57.027Z,60.45
2022-09-15T21:34:00.780Z,60.55
2022-09-15T21:39:04.910Z,60.73
2022-09-15T21:44:09.020Z,60.94
2022-09-15T21:49:14.164Z,61.04
2022-09-15T21:54:18.112Z,61.08
2022-09-15T21:59:21.427Z,61.42
2022-09-15T22:04:24.916Z,61.52
2022-09-15T22:09:28.784Z,61.61
2022-09-15T22:14:32.287Z,62.02
2022-09-15T22:19:35.873Z,62.08
2022-09-15T22:24:39.409Z,62.14
2022-09-15T22:29:42.816Z,62.33
2022-09-15T22:34:46.430Z,62.61
2022-09-15T22:39:58.927Z,62.55
2022-09-15T22:45:02.600Z,62.65
2022-09-15T22:50:07.038Z,62.77
2022-09-15T22:55:11.383Z,62.72
2022-09-15T23:00:16.239Z,63.19
2022-09-15T23:05:19.933Z,63.07
2022-09-15T23:10:23.675Z,63.26
2022-09-15T23:15:27.173Z,63.36
2022-09-15T23:20:30.692Z,63.43
2022-09-15T23:25:34.299Z,63.58
2022-09-15T23:30:38.835Z,63.73
2022-09-15T23:35:49.725Z,63.85
2022-09-15T23:41:06.059Z,64.06
2022-09-15T23:46:10.116Z,64.02
2022-09-15T23:51:14.795Z,64.19
2022-09-15T23:56:18.753Z,64.34
